Time;durP1;ratioP1;P1;durP2;ratioP2;P2;SDS_P1;SDS_P2;PMS_P1;PMS_P2;Temp;Humidity;BMP_temperature;BMP_pressure;BME280_temperature;BME280_humidity;BME280_pressure;Samples;Min_cycle;Max_cycle;Signal;HPM_P1;HPM_P2
2021/07/31 00:01:52;;;;;;;15.32;9.85;;;;;;;17.60;64.75;99390.66;1668515;105;28524;-71
2021/07/31 00:08:13;;;;;;;16.90;9.43;;;;;;;17.49;65.05;99393.02;1641492;108;27797;-73
2021/07/31 00:15:31;;;;;;;14.30;9.78;;;;;;;17.40;65.29;99395.25;1626954;108;27979;-73
2021/07/31 00:21:30;;;;;;;27.87;10.93;;;;;;;17.29;65.56;99386.77;1623890;108;28582;-74
2021/07/31 00:24:34;;;;;;;19.57;10.23;;;;;;;17.24;65.59;99379.56;1611594;109;33016;-72
2021/07/31 00:27:37;;;;;;;;;;;;;;;17.13;65.74;99374.65;1611520;110;29754;-72
2021/07/31 00:30:39;;;;;;;17.82;9.48;;;;;;;17.10;65.91;99370.87;1631139;109;27875;-72
2021/07/31 00:33:42;;;;;;;13.60;10.08;;;;;;;17.04;66.11;99369.23;1632645;108;29505;-71
2021/07/31 00:36:45;;;;;;;16.90;10.60;;;;;;;16.98;65.98;99367.43;1635614;108;32110;-72
2021/07/31 00:39:47;;;;;;;12.58;8.88;;;;;;;16.95;66.23;99365.03;1639095;107;33811;-75
2021/07/31 00:42:49;;;;;;;16.57;9.70;;;;;;;16.91;66.10;99364.91;1625741;109;30606;-70
2021/07/31 00:45:52;;;;;;;12.23;9.25;;;;;;;16.88;66.39;99367.89;1630636;107;27858;-71
2021/07/31 00:48:56;;;;;;;17.60;9.53;;;;;;;16.84;66.36;99373.22;1657523;106;28756;-73
2021/07/31 00:51:58;;;;;;;18.27;9.13;;;;;;;16.80;66.74;99380.77;1777809;95;31927;-72
2021/07/31 00:55:01;;;;;;;22.27;10.03;;;;;;;16.78;66.69;99369.74;1894162;93;33033;-72
2021/07/31 00:58:03;;;;;;;15.83;9.73;;;;;;;16.76;66.61;99373.92;1910745;92;29649;-73
2021/07/31 01:01:06;;;;;;;17.27;9.23;;;;;;;16.76;66.99;99367.16;1998379;88;27720;-71
2021/07/31 01:04:09;;;;;;;13.58;9.55;;;;;;;16.76;66.88;99363.61;1992414;89;29346;-75
2021/07/31 01:07:11;;;;;;;20.35;9.35;;;;;;;16.78;66.83;99365.69;1999061;88;31047;-73
2021/07/31 01:10:13;;;;;;;16.37;9.23;;;;;;;16.78;66.85;99364.33;1999163;88;32954;-72
2021/07/31 01:13:16;;;;;;;14.18;8.78;;;;;;;16.78;66.79;99362.47;1998941;88;30610;-72
2021/07/31 01:16:18;;;;;;;17.95;9.28;;;;;;;16.80;66.89;99363.66;1999234;88;27699;-72
2021/07/31 01:19:20;;;;;;;15.25;9.80;;;;;;;16.80;66.74;99367.24;1999385;89;28735;-73
2021/07/31 01:22:22;;;;;;;13.48;9.45;;;;;;;16.78;66.85;99359.77;1998678;88;30479;-71
2021/07/31 01:25:23;;;;;;;16.57;9.60;;;;;;;16.77;66.84;99357.21;1999170;88;33773;-72
2021/07/31 01:28:26;;;;;;;16.27;9.78;;;;;;;16.76;66.96;99364.97;1998306;88;29783;-72
2021/07/31 01:31:28;;;;;;;13.08;10.70;;;;;;;16.74;67.04;99352.08;1998878;89;27712;-72
2021/07/31 01:34:29;;;;;;;16.52;10.28;;;;;;;16.72;67.12;99352.19;1999321;89;28632;-73
2021/07/31 01:37:31;;;;;;;18.67;11.05;;;;;;;16.69;67.35;99349.28;2025281;87;31049;-73
2021/07/31 01:40:33;;;;;;;25.15;11.22;;;;;;;16.65;67.57;99353.77;2039800;86;33714;-72
2021/07/31 01:43:36;;;;;;;15.32;10.18;;;;;;;16.60;67.48;99343.38;2021161;87;29656;-72
2021/07/31 01:46:38;;;;;;;15.00;9.65;;;;;;;16.60;67.56;99346.08;1996526;88;27743;-72
2021/07/31 01:49:40;;;;;;;16.23;9.88;;;;;;;16.60;67.48;99343.85;1996100;88;28723;-71
2021/07/31 01:52:41;;;;;;;18.10;9.15;;;;;;;16.58;67.45;99342.65;1996861;88;31050;-70
2021/07/31 01:55:47;;;;;;;20.10;10.82;;;;;;;16.56;67.76;99345.98;1990833;89;32878;-71
2021/07/31 01:58:49;;;;;;;14.87;10.43;;;;;;;16.52;67.80;99341.84;1990148;89;29731;-71
2021/07/31 02:01:50;;;;;;;14.33;10.32;;;;;;;16.49;67.89;99347.03;1990486;89;27696;-73
2021/07/31 02:04:52;;;;;;;16.17;9.65;;;;;;;16.48;67.84;99348.51;1990334;89;28052;-73
2021/07/31 02:07:54;;;;;;;18.42;9.55;;;;;;;16.46;67.96;99341.90;1990459;89;31055;-72
2021/07/31 02:10:56;;;;;;;19.75;10.15;;;;;;;16.44;68.09;99347.94;1990617;89;32988;-72
2021/07/31 02:13:58;;;;;;;14.18;9.40;;;;;;;16.39;68.24;99345.66;1990358;89;29788;-71
2021/07/31 02:16:59;;;;;;;23.18;9.83;;;;;;;16.38;68.30;99346.64;1989266;89;28451;-73
2021/07/31 02:20:01;;;;;;;17.35;9.25;;;;;;;16.37;68.32;99339.52;1990618;89;28615;-72
2021/07/31 02:23:04;;;;;;;14.33;10.18;;;;;;;16.36;68.19;99331.56;1990288;89;31855;-72
2021/07/31 02:26:06;;;;;;;23.62;10.03;;;;;;;16.34;68.25;99322.73;1989868;89;32992;-71
2021/07/31 02:29:08;;;;;;;18.48;10.13;;;;;;;16.32;68.39;99334.18;1990466;89;30409;-71
2021/07/31 02:32:10;;;;;;;12.55;9.70;;;;;;;16.28;68.58;99327.33;1990417;89;27802;-71
2021/07/31 02:35:12;;;;;;;15.25;10.23;;;;;;;16.26;68.72;99319.38;1990374;89;29317;-72
2021/07/31 02:38:14;;;;;;;18.98;11.03;;;;;;;16.27;68.73;99324.27;1985339;89;31037;-72
2021/07/31 02:41:17;;;;;;;18.82;11.08;;;;;;;16.24;68.75;99316.78;1994629;87;33714;-71
2021/07/31 02:44:18;;;;;;;16.77;11.12;;;;;;;16.24;68.93;99320.84;2014951;86;30357;-74
2021/07/31 02:47:20;;;;;;;19.35;11.18;;;;;;;16.23;69.17;99322.34;2037245;87;27877;-71
2021/07/31 02:50:22;;;;;;;22.15;11.78;;;;;;;16.20;69.67;99319.91;1995263;89;28641;-73
2021/07/31 02:53:24;;;;;;;16.07;10.63;;;;;;;16.16;69.37;99319.34;1942877;90;31827;-72
2021/07/31 02:56:26;;;;;;;14.70;10.18;;;;;;;16.19;69.44;99315.02;1933528;91;32673;-73
2021/07/31 02:59:28;;;;;;;16.62;10.60;;;;;;;16.22;69.55;99326.88;1933732;91;29092;-72
2021/07/31 03:02:29;;;;;;;15.55;11.10;;;;;;;16.27;69.69;99338.65;1933817;92;27719;-73
2021/07/31 03:05:31;;;;;;;23.60;11.48;;;;;;;16.30;69.61;99342.91;1942215;91;28659;-75
2021/07/31 03:08:33;;;;;;;15.48;11.35;;;;;;;16.35;69.66;99330.70;1944590;91;31291;-75
2021/07/31 03:11:35;;;;;;;17.10;11.12;;;;;;;16.40;69.56;99335.69;1944519;91;33703;-72
2021/07/31 03:14:37;;;;;;;15.32;10.03;;;;;;;16.43;69.60;99336.77;1940942;91;29642;-75
2021/07/31 03:17:38;;;;;;;17.70;11.25;;;;;;;16.46;69.53;99336.49;1938603;91;27661;-75
2021/07/31 03:20:50;;;;;;;17.23;10.93;;;;;;;16.48;69.53;99346.67;1938493;91;28654;-77
2021/07/31 03:23:52;;;;;;;16.32;10.58;;;;;;;16.51;69.55;99345.05;1937130;91;31142;-73
2021/07/31 03:26:54;;;;;;;18.87;11.25;;;;;;;16.54;69.54;99342.56;2020163;88;33911;-72
2021/07/31 03:29:56;;;;;;;16.00;10.25;;;;;;;16.58;69.57;99340.42;2020331;88;29631;-72
2021/07/31 03:32:58;;;;;;;20.95;11.55;;;;;;;16.63;69.52;99347.63;2020586;88;27791;-72
2021/07/31 03:35:59;;;;;;;18.60;11.48;;;;;;;16.69;69.56;99345.23;2014812;88;28663;-73
2021/07/31 03:39:02;;;;;;;18.17;10.70;;;;;;;16.76;69.61;99338.76;1981704;89;31503;-73
2021/07/31 03:42:03;;;;;;;14.98;10.18;;;;;;;16.81;69.42;99342.39;1969738;88;33779;-72
2021/07/31 03:45:07;;;;;;;15.70;10.70;;;;;;;16.88;69.51;99346.25;1957911;90;30668;-70
2021/07/31 03:48:09;;;;;;;13.93;10.65;;;;;;;16.97;69.46;99347.30;1958212;90;27649;-72
2021/07/31 03:51:11;;;;;;;18.87;10.58;;;;;;;17.08;69.50;99353.08;1924603;92;28724;-74
2021/07/31 03:54:13;;;;;;;18.52;10.65;;;;;;;17.14;69.25;99347.94;1987843;89;31102;-73
2021/07/31 03:57:15;;;;;;;19.27;11.95;;;;;;;17.25;69.37;99346.95;1998036;89;32985;-71
2021/07/31 04:00:17;;;;;;;22.73;12.07;;;;;;;17.40;69.26;99359.53;1995425;89;29849;-71
2021/07/31 04:03:19;;;;;;;20.82;12.68;;;;;;;17.53;68.84;99366.02;1995536;89;28323;-71
2021/07/31 04:06:21;;;;;;;16.23;10.63;;;;;;;17.61;68.62;99362.10;1993104;89;29498;-71
2021/07/31 04:09:23;;;;;;;19.12;12.43;;;;;;;17.76;68.54;99357.06;2005353;88;32000;-72
2021/07/31 04:12:34;;;;;;;14.90;10.78;;;;;;;17.88;68.12;99360.46;1998283;88;33832;-72
2021/07/31 04:15:44;;;;;;;18.23;11.35;;;;;;;18.01;68.09;99351.18;1992990;89;29679;-71
2021/07/31 04:18:50;;;;;;;18.62;10.30;;;;;;;18.16;67.98;99354.28;1960459;90;27858;-73
2021/07/31 04:21:58;;;;;;;15.43;10.82;;;;;;;18.32;68.03;99367.17;2003761;88;28781;-71
2021/07/31 04:25:08;;;;;;;17.35;10.82;;;;;;;18.44;67.81;99360.58;1940021;90;31263;-72
2021/07/31 04:28:13;;;;;;;16.30;10.75;;;;;;;18.56;67.48;99359.84;1995779;89;33776;-72
2021/07/31 04:31:15;;;;;;;;;;;;;;;18.70;67.45;99372.06;1963075;90;29631;-74
2021/07/31 04:34:17;;;;;;;12.20;9.88;;;;;;;18.84;67.37;99373.41;1958414;90;27701;-71
2021/07/31 04:37:19;;;;;;;15.90;9.98;;;;;;;18.90;67.34;99364.64;1960572;90;28652;-73
2021/07/31 04:40:21;;;;;;;12.63;10.03;;;;;;;19.09;67.18;99383.19;1960548;90;31019;-74
2021/07/31 04:43:22;;;;;;;20.60;10.85;;;;;;;19.23;66.87;99388.08;2000251;88;33124;-73
2021/07/31 04:46:24;;;;;;;14.68;9.70;;;;;;;19.38;66.65;99390.25;1999481;88;29653;-73
2021/07/31 04:49:26;;;;;;;17.27;9.58;;;;;;;19.55;66.24;99388.02;1999493;88;28270;-73
2021/07/31 04:52:28;;;;;;;15.65;9.55;;;;;;;19.76;66.20;99388.72;1999277;88;29683;-75
2021/07/31 04:55:30;;;;;;;16.30;9.80;;;;;;;20.06;66.12;99381.97;1998980;88;31152;-75
2021/07/31 04:58:32;;;;;;;10.38;9.05;;;;;;;20.41;65.65;99376.56;1999358;89;33976;-75
2021/07/31 05:01:34;;;;;;;13.25;9.85;;;;;;;20.63;65.26;99368.31;2004289;88;29641;-76
2021/07/31 05:04:36;;;;;;;13.40;9.15;;;;;;;20.91;64.76;99372.16;1999322;88;27710;-76
2021/07/31 05:07:38;;;;;;;16.57;9.13;;;;;;;21.11;64.28;99371.34;1998708;89;29458;-76
2021/07/31 05:10:42;;;;;;;20.00;9.40;;;;;;;21.23;63.91;99370.52;1999201;88;31868;-75
2021/07/31 05:13:45;;;;;;;;;;;;;;;21.38;63.61;99378.36;2000900;88;33017;-75
2021/07/31 05:16:47;;;;;;;14.33;9.13;;;;;;;21.53;63.50;99383.13;1999373;88;29846;-75
2021/07/31 05:19:49;;;;;;;15.30;9.73;;;;;;;21.69;63.51;99385.88;1999246;88;27605;-78
2021/07/31 05:22:53;;;;;;;15.10;9.85;;;;;;;22.04;63.45;99386.19;1999583;88;28756;-77
2021/07/31 05:25:55;;;;;;;12.68;8.78;;;;;;;22.31;62.83;99384.93;1999292;89;31072;-75
2021/07/31 05:28:57;;;;;;;16.23;9.43;;;;;;;22.58;62.55;99382.84;1999435;88;32993;-75
2021/07/31 05:32:01;;;;;;;14.18;9.30;;;;;;;22.80;61.95;99386.66;1999448;89;29723;-75
2021/07/31 05:35:04;;;;;;;11.57;8.90;;;;;;;23.01;61.75;99388.75;1999370;88;27681;-75
2021/07/31 05:38:07;;;;;;;14.38;8.80;;;;;;;23.35;61.54;99383.94;1999151;89;28674;-74
2021/07/31 05:41:16;;;;;;;16.17;9.05;;;;;;;23.71;60.97;99383.84;1999152;88;31035;-75
2021/07/31 05:44:19;;;;;;;13.85;8.65;;;;;;;24.12;60.42;99382.09;1998864;88;33023;-75
2021/07/31 05:47:24;;;;;;;13.83;8.00;;;;;;;24.47;59.92;99386.48;1999355;88;29819;-75
2021/07/31 05:50:26;;;;;;;12.90;7.50;;;;;;;24.81;59.26;99383.69;2013389;88;27700;-73
2021/07/31 05:53:29;;;;;;;10.72;8.20;;;;;;;25.25;58.56;99388.73;2005918;87;28672;-73
2021/07/31 05:56:30;;;;;;;20.12;8.68;;;;;;;25.77;58.05;99383.95;2012453;88;31976;-73
2021/07/31 05:59:32;;;;;;;11.73;8.05;;;;;;;26.19;57.23;99388.74;2013383;88;32938;-73
2021/07/31 06:02:34;;;;;;;11.28;8.23;;;;;;;26.42;56.57;99396.70;2035120;86;30493;-73
2021/07/31 06:05:36;;;;;;;11.88;7.42;;;;;;;26.59;55.91;99400.48;2015441;87;27726;-74
2021/07/31 06:08:37;;;;;;;13.08;7.20;;;;;;;26.74;55.63;99409.95;2013474;87;28676;-75
2021/07/31 06:11:39;;;;;;;13.48;6.97;;;;;;;26.89;55.09;99409.84;2013496;87;31203;-73
2021/07/31 06:14:41;;;;;;;8.70;6.60;;;;;;;27.07;54.50;99406.52;2013338;88;32969;-74
2021/07/31 06:17:44;;;;;;;12.18;6.12;;;;;;;27.31;54.13;99411.97;1984179;89;55761;-71
2021/07/31 06:20:46;;;;;;;10.30;5.75;;;;;;;27.51;53.09;99409.31;1994045;86;27727;-69
2021/07/31 06:23:48;;;;;;;9.98;6.45;;;;;;;27.69;52.60;99407.85;2014876;88;29586;-75
2021/07/31 06:26:50;;;;;;;6.78;5.62;;;;;;;27.82;51.15;99409.73;2012796;87;31068;-74
2021/07/31 06:29:51;;;;;;;8.98;5.70;;;;;;;27.91;50.96;99416.75;2016861;88;32919;-74
2021/07/31 06:33:42;;;;;;;6.60;5.83;;;;;;;28.02;50.30;99418.02;2017473;88;30411;-75
2021/07/31 06:36:05;;;;;;;6.35;5.75;;;;;;;28.08;50.12;99434.22;1973369;87;27626;-75
2021/07/31 06:39:33;;;;;;;7.33;5.65;;;;;;;28.12;49.82;99425.34;2017963;86;28784;-74
2021/07/31 06:42:53;;;;;;;7.10;5.33;;;;;;;28.21;48.62;99427.34;1991016;86;27802;-75
2021/07/31 06:45:55;;;;;;;9.45;5.35;;;;;;;28.29;48.86;99434.02;1970415;86;29810;-72
2021/07/31 06:49:37;;;;;;;6.78;4.90;;;;;;;28.59;48.24;99438.18;1986001;87;27658;-76
2021/07/31 06:51:56;;;;;;;7.08;5.05;;;;;;;28.93;48.00;99428.79;1970547;87;27769;-75
2021/07/31 06:54:58;;;;;;;6.95;5.05;;;;;;;29.79;46.76;99437.33;1996299;89;28821;-71
2021/07/31 06:58:00;;;;;;;7.17;5.25;;;;;;;30.45;46.12;99431.75;1993343;89;31061;-74
2021/07/31 07:01:02;;;;;;;5.95;4.65;;;;;;;31.01;45.04;99434.55;1994538;89;33756;-76
2021/07/31 07:04:04;;;;;;;5.78;4.78;;;;;;;31.32;43.39;99438.77;1993035;89;29623;-73
2021/07/31 07:07:06;;;;;;;5.70;5.03;;;;;;;31.90;42.98;99444.20;1998124;87;27663;-72
2021/07/31 07:10:09;;;;;;;9.95;4.78;;;;;;;32.36;42.33;99440.89;1995348;89;29693;-70
2021/07/31 07:13:11;;;;;;;6.13;4.87;;;;;;;32.79;40.14;99442.95;1999882;87;31029;-72
2021/07/31 07:16:13;;;;;;;6.33;5.08;;;;;;;33.06;40.38;99434.95;1960869;90;32921;-69
2021/07/31 07:19:14;;;;;;;7.03;4.22;;;;;;;33.39;39.43;99439.48;1995921;87;29815;-69
2021/07/31 07:22:16;;;;;;;5.17;4.45;;;;;;;33.72;38.67;99450.36;1996622;87;27675;-70
2021/07/31 07:25:19;;;;;;;6.78;4.62;;;;;;;34.32;38.33;99439.72;1965555;89;28651;-73
2021/07/31 07:28:21;;;;;;;6.97;4.77;;;;;;;34.66;37.23;99437.73;1992659;89;31302;-72
2021/07/31 07:31:23;;;;;;;6.97;4.60;;;;;;;34.60;36.13;99441.52;1993024;89;33561;-71
2021/07/31 07:34:25;;;;;;;4.90;4.40;;;;;;;34.34;36.14;99437.50;1995732;87;29631;-73
2021/07/31 07:37:28;;;;;;;6.95;4.70;;;;;;;34.04;35.60;99438.70;1995310;88;27707;-72
2021/07/31 07:40:30;;;;;;;5.22;4.70;;;;;;;33.97;35.65;99438.88;1996865;87;28646;-73
2021/07/31 07:43:31;;;;;;;5.35;4.53;;;;;;;33.89;35.46;99435.98;1998216;87;31840;-71
2021/07/31 07:46:34;;;;;;;7.62;4.35;;;;;;;34.17;35.08;99438.36;1991818;87;33017;-70
2021/07/31 07:49:36;;;;;;;7.22;4.37;;;;;;;34.43;34.82;99440.72;1990231;89;29756;-71
2021/07/31 07:52:38;;;;;;;4.37;3.95;;;;;;;34.80;34.50;99450.72;1990597;89;27560;-71
2021/07/31 07:55:39;;;;;;;4.40;4.00;;;;;;;35.13;33.58;99447.55;1952994;91;29508;-72
2021/07/31 07:58:41;;;;;;;4.95;3.90;;;;;;;35.43;33.14;99447.59;1952845;91;31101;-73
2021/07/31 08:01:43;;;;;;;5.70;4.25;;;;;;;35.51;32.16;99444.91;1945460;89;33035;-72
2021/07/31 08:04:45;;;;;;;6.85;5.25;;;;;;;35.28;32.18;99449.64;1991231;88;30423;-73
2021/07/31 08:07:46;;;;;;;8.48;3.95;;;;;;;34.93;32.10;99447.25;1990929;89;27746;-72
2021/07/31 08:10:48;;;;;;;5.97;4.05;;;;;;;34.53;31.82;99441.71;1990887;89;29457;-72
2021/07/31 08:13:50;;;;;;;9.18;4.25;;;;;;;34.13;32.08;99450.25;1989087;89;31174;-73
2021/07/31 08:16:52;;;;;;;4.78;3.92;;;;;;;33.57;31.75;99453.17;1954306;91;33540;-71
2021/07/31 08:19:53;;;;;;;6.55;4.22;;;;;;;33.14;32.00;99462.86;1996112;89;30336;-71
2021/07/31 08:22:55;;;;;;;6.12;4.12;;;;;;;32.82;32.51;99459.98;1991801;89;27745;-75
2021/07/31 08:25:57;;;;;;;5.78;4.20;;;;;;;32.45;32.75;99465.77;1987561;89;28653;-73
2021/07/31 08:28:59;;;;;;;6.97;4.05;;;;;;;32.17;33.11;99473.40;1988048;87;32026;-73
2021/07/31 08:32:01;;;;;;;7.42;3.90;;;;;;;31.97;33.29;99469.03;1990677;89;33005;-74
2021/07/31 08:35:04;;;;;;;4.65;4.25;;;;;;;31.65;33.41;99467.34;1986720;89;29787;-74
2021/07/31 08:38:05;;;;;;;9.23;4.60;;;;;;;31.47;33.86;99468.78;1987286;89;27717;-71
2021/07/31 08:41:08;;;;;;;5.87;3.83;;;;;;;31.28;33.75;99467.43;1987357;89;28631;-70
2021/07/31 08:44:10;;;;;;;5.65;3.70;;;;;;;31.02;33.96;99469.45;1989547;87;31031;-74
2021/07/31 08:47:13;;;;;;;6.90;3.85;;;;;;;30.82;34.36;99471.08;1998227;87;32964;-71
2021/07/31 08:50:17;;;;;;;7.33;4.53;;;;;;;30.66;34.83;99474.45;1991715;89;29695;-71
2021/07/31 08:53:22;;;;;;;5.05;4.55;;;;;;;30.44;34.81;99468.79;1991621;89;27771;-74
2021/07/31 08:56:23;;;;;;;;;;;;;;;30.22;35.11;99468.33;1972699;89;28674;-72
2021/07/31 08:59:28;;;;;;;6.12;3.80;;;;;;;30.12;35.36;99465.25;1997666;89;31850;-71
2021/07/31 09:02:48;;;;;;;7.53;4.30;;;;;;;30.08;35.90;99467.63;1998870;89;33036;-72
2021/07/31 09:05:50;;;;;;;5.25;4.30;;;;;;;30.06;35.86;99461.47;1993383;87;29823;-74
2021/07/31 09:08:53;;;;;;;5.92;4.67;;;;;;;30.04;35.89;99464.12;1968074;88;28584;-72
2021/07/31 09:12:02;;;;;;;7.33;4.78;;;;;;;29.95;35.96;99463.56;1968240;88;28774;-72
2021/07/31 09:15:06;;;;;;;4.97;4.35;;;;;;;30.01;36.41;99461.30;1998278;88;30996;-72
2021/07/31 09:18:33;;;;;;;7.12;4.22;;;;;;;30.22;36.36;99453.69;1957489;89;33592;-70
2021/07/31 09:21:36;;;;;;;6.00;4.58;;;;;;;30.33;36.30;99461.77;1963040;89;29654;-72
2021/07/31 09:24:38;;;;;;;7.40;4.75;;;;;;;30.26;36.32;99473.72;1969464;89;27630;-71
2021/07/31 09:27:40;;;;;;;6.97;4.62;;;;;;;30.22;36.53;99470.27;1976965;89;28735;-71
2021/07/31 09:30:52;;;;;;;7.47;4.87;;;;;;;30.20;36.70;99464.11;2017887;88;31245;-71
2021/07/31 09:34:04;;;;;;;5.35;4.80;;;;;;;30.21;36.86;99461.66;2019717;88;32509;-72
2021/07/31 09:37:09;;;;;;;7.20;4.72;;;;;;;30.26;36.82;99461.84;2002552;88;30432;-71
2021/07/31 09:40:13;;;;;;;8.28;4.47;;;;;;;30.36;37.13;99453.03;2023919;87;27606;-73
2021/07/31 09:43:17;;;;;;;4.80;4.37;;;;;;;30.42;36.81;99457.63;2037126;87;29415;-71
2021/07/31 09:46:36;;;;;;;9.10;4.97;;;;;;;30.46;36.97;99451.41;2036987;86;31192;-72
2021/07/31 09:49:40;;;;;;;4.90;4.40;;;;;;;30.49;36.55;99446.51;2050831;86;33091;-69
2021/07/31 09:52:42;;;;;;;5.58;5.00;;;;;;;30.55;36.85;99442.31;2051064;86;29157;-72
2021/07/31 09:55:49;;;;;;;5.05;4.58;;;;;;;30.67;36.88;99437.43;2048253;86;27650;-71
2021/07/31 09:58:51;;;;;;;8.35;5.22;;;;;;;30.78;36.75;99444.13;2050970;86;28654;-72
2021/07/31 10:02:01;;;;;;;5.97;4.40;;;;;;;30.86;36.86;99443.24;2050059;86;31823;-72
2021/07/31 10:05:04;;;;;;;8.25;4.60;;;;;;;31.04;36.99;99443.78;2048773;86;33648;-72
2021/07/31 10:08:07;;;;;;;7.42;5.00;;;;;;;31.16;36.43;99435.58;2051138;86;29631;-72
2021/07/31 10:11:09;;;;;;;6.47;5.87;;;;;;;31.27;36.28;99428.41;2051508;86;27759;-73
2021/07/31 10:14:11;;;;;;;7.08;5.15;;;;;;;31.48;36.55;99436.73;2050437;86;28639;-71
2021/07/31 10:17:14;;;;;;;9.83;5.47;;;;;;;31.59;35.83;99434.22;2048767;86;31236;-71
2021/07/31 10:20:25;;;;;;;9.28;5.72;;;;;;;31.57;35.89;99440.00;2051379;86;32967;-71
2021/07/31 10:23:57;;;;;;;6.05;4.45;;;;;;;31.49;35.77;99438.41;2059256;86;29678;-73
2021/07/31 10:27:23;;;;;;;10.75;5.28;;;;;;;31.43;35.54;99437.96;2032561;86;27901;-70
2021/07/31 10:30:38;;;;;;;5.45;3.87;;;;;;;31.25;35.40;99431.95;2051473;86;28673;-72
2021/07/31 10:33:46;;;;;;;7.78;4.62;;;;;;;31.20;35.79;99432.62;2051158;86;32028;-71
2021/07/31 10:36:51;;;;;;;8.73;4.62;;;;;;;31.16;35.34;99431.43;2047587;86;33735;-70
2021/07/31 10:39:51;;;;;;;6.28;5.65;;;;;;;30.97;35.58;99435.27;2051045;86;29715;-72
2021/07/31 10:43:01;;;;;;;6.67;5.17;;;;;;;30.75;35.61;99435.20;2051273;86;27726;-70
2021/07/31 10:46:21;;;;;;;7.45;4.92;;;;;;;30.64;35.77;99429.04;2041094;86;28702;-73
2021/07/31 10:49:37;;;;;;;5.60;4.55;;;;;;;30.58;35.97;99434.95;2029730;87;31042;-68
2021/07/31 10:53:12;;;;;;;4.58;4.17;;;;;;;30.59;36.03;99427.52;2035066;87;33783;-74
2021/07/31 10:56:14;;;;;;;5.97;5.12;;;;;;;30.45;35.98;99425.40;2000128;87;29729;-74
2021/07/31 10:59:17;;;;;;;5.33;4.83;;;;;;;30.27;36.30;99425.68;2001434;87;27709;-72
2021/07/31 11:02:38;;;;;;;6.00;5.10;;;;;;;30.05;36.47;99422.48;2002187;88;28820;-70
2021/07/31 11:06:06;;;;;;;7.00;5.33;;;;;;;29.83;36.76;99424.77;1998842;88;31033;-73
2021/07/31 11:09:11;;;;;;;7.15;5.28;;;;;;;29.71;37.04;99427.41;1995110;89;28304;-72
2021/07/31 11:12:44;;;;;;;7.10;4.87;;;;;;;29.65;37.19;99429.15;1995074;89;30291;-73
2021/07/31 11:16:13;;;;;;;7.28;5.25;;;;;;;29.55;37.13;99428.27;1957345;89;27835;-75
2021/07/31 11:19:12;;;;;;;7.25;5.22;;;;;;;29.47;37.46;99430.44;1992944;89;28693;-76
2021/07/31 11:22:14;;;;;;;7.65;5.50;;;;;;;29.48;37.68;99423.86;1990500;89;31208;-75
2021/07/31 11:25:17;;;;;;;7.67;5.35;;;;;;;29.55;37.84;99417.22;1971511;89;33724;-75
2021/07/31 11:28:20;;;;;;;5.25;4.50;;;;;;;29.68;37.44;99419.05;1989856;89;29697;-77
2021/07/31 11:31:21;;;;;;;8.70;4.97;;;;;;;29.78;37.99;99413.03;1991183;89;28457;-73
2021/07/31 11:34:23;;;;;;;6.33;4.85;;;;;;;29.85;37.95;99428.98;1966585;89;28622;-72
2021/07/31 11:37:30;;;;;;;169.70;151.90;;;;;;;29.84;37.70;99420.95;1951267;91;31300;-76
2021/07/31 11:40:32;;;;;;;239.93;213.22;;;;;;;29.81;37.87;99419.45;1940265;91;32979;-77
2021/07/31 11:43:46;;;;;;;16.10;13.38;;;;;;;29.78;37.94;99418.55;1927183;91;29638;-75
2021/07/31 11:46:48;;;;;;;273.90;219.32;;;;;;;29.79;37.96;99420.77;1994821;87;27685;-75
2021/07/31 11:49:50;;;;;;;50.30;41.83;;;;;;;29.80;37.94;99419.14;2010961;87;28710;-76
2021/07/31 11:52:51;;;;;;;68.22;59.90;;;;;;;29.86;38.23;99418.26;2010762;88;31030;-76
2021/07/31 11:56:12;;;;;;;37.60;28.95;;;;;;;30.03;38.40;99414.97;2012937;87;33900;-76
2021/07/31 11:59:29;;;;;;;35.05;26.50;;;;;;;30.16;38.05;99414.00;1955152;90;30514;-78
2021/07/31 12:02:36;;;;;;;35.20;25.65;;;;;;;30.08;37.58;99403.23;1958230;89;27687;-78
2021/07/31 12:05:38;;;;;;;10.78;7.37;;;;;;;29.93;38.08;99411.84;1980667;89;28952;-76
2021/07/31 12:08:46;;;;;;;11.73;7.35;;;;;;;29.81;38.25;99403.44;1952440;91;31043;-77
2021/07/31 12:11:51;;;;;;;47.98;35.70;;;;;;;29.71;38.07;99406.70;1952543;91;32985;-74
2021/07/31 12:15:24;;;;;;;25.70;17.73;;;;;;;29.57;38.26;99411.47;1952764;91;29654;-76
2021/07/31 12:18:28;;;;;;;48.13;25.82;;;;;;;29.42;37.98;99410.42;1952272;91;27748;-75
2021/07/31 12:21:29;;;;;;;7.95;5.65;;;;;;;29.29;38.38;99409.92;1952554;91;28871;-74
2021/07/31 12:24:31;;;;;;;9.28;5.42;;;;;;;29.16;38.24;99400.35;1952513;91;31096;-74
2021/07/31 12:28:05;;;;;;;10.58;5.37;;;;;;;29.05;38.47;99393.07;1952766;91;32967;-74
2021/07/31 12:31:27;;;;;;;6.28;4.90;;;;;;;29.02;38.19;99389.91;1952751;91;29615;-75
2021/07/31 12:34:33;;;;;;;8.25;6.28;;;;;;;28.87;38.04;99388.29;1952981;91;27673;-73
2021/07/31 12:37:41;;;;;;;125.60;64.60;;;;;;;28.83;38.21;99397.23;1978843;89;28667;-75
2021/07/31 12:40:43;;;;;;;29.95;19.80;;;;;;;28.88;38.56;99393.26;1950912;90;31010;-74
2021/07/31 12:43:46;;;;;;;15.58;10.93;;;;;;;28.97;38.28;99393.34;1951824;91;33019;-75
2021/07/31 12:46:48;;;;;;;10.10;7.28;;;;;;;29.04;38.23;99388.62;1982633;89;29652;-74
2021/07/31 12:49:50;;;;;;;8.63;5.75;;;;;;;29.13;38.62;99380.10;1954111;89;27793;-75
2021/07/31 12:52:55;;;;;;;8.55;6.15;;;;;;;29.31;38.82;99379.34;1952406;91;29553;-74
2021/07/31 12:55:57;;;;;;;47.40;29.35;;;;;;;29.36;37.89;99372.15;1952580;91;31110;-73
2021/07/31 12:58:58;;;;;;;10.55;8.00;;;;;;;29.34;38.19;99368.73;1951957;91;33052;-73
2021/07/31 13:02:01;;;;;;;13.78;10.65;;;;;;;29.28;38.28;99370.16;1954649;89;30529;-74
2021/07/31 13:05:03;;;;;;;21.93;13.32;;;;;;;29.24;38.02;99369.22;1956123;91;27787;-74
2021/07/31 13:08:05;;;;;;;18.23;9.28;;;;;;;29.25;38.28;99372.29;1955920;91;28658;-74
2021/07/31 13:11:07;;;;;;;21.23;16.27;;;;;;;29.30;38.46;99375.75;1953255;91;31152;-72
2021/07/31 13:14:09;;;;;;;15.50;12.70;;;;;;;29.29;38.46;99376.82;1952660;91;33751;-72
2021/07/31 13:17:10;;;;;;;12.43;7.50;;;;;;;29.29;38.54;99375.44;1952333;91;30679;-72
2021/07/31 13:20:13;;;;;;;11.35;5.92;;;;;;;29.33;38.69;99373.08;1952455;91;27820;-71
2021/07/31 13:23:15;;;;;;;7.28;6.58;;;;;;;29.35;38.46;99370.45;1952527;91;28717;-72
2021/07/31 13:26:16;;;;;;;9.13;6.17;;;;;;;29.39;38.63;99363.40;1953030;89;31038;-73
2021/07/31 13:29:18;;;;;;;9.80;6.65;;;;;;;29.41;38.58;99366.78;1955882;89;33034;-71
2021/07/31 13:32:20;;;;;;;9.83;5.78;;;;;;;29.39;38.60;99368.92;1952812;91;29684;-73
2021/07/31 13:35:22;;;;;;;8.00;6.83;;;;;;;29.41;38.84;99363.20;1952490;91;27672;-73
2021/07/31 13:38:24;;;;;;;7.72;5.47;;;;;;;29.51;38.29;99351.11;1952187;91;29636;-75
2021/07/31 13:41:26;;;;;;;9.30;6.55;;;;;;;29.51;38.10;99351.11;1933804;91;33070;-73
2021/07/31 13:44:29;;;;;;;8.83;5.97;;;;;;;29.45;37.76;99345.13;1952518;91;32981;-73
2021/07/31 13:47:32;;;;;;;11.50;6.50;;;;;;;29.37;37.11;99338.49;1953787;90;30509;-75
2021/07/31 13:50:34;;;;;;;8.83;5.97;;;;;;;29.39;37.33;99341.88;1947166;91;27668;-73
2021/07/31 13:53:35;;;;;;;8.15;5.97;;;;;;;29.52;37.30;99337.63;1946178;91;28544;-75
2021/07/31 13:56:37;;;;;;;8.88;7.40;;;;;;;29.63;37.18;99342.95;1916531;92;32480;-73
2021/07/31 13:59:41;;;;;;;7.85;4.72;;;;;;;29.81;36.39;99336.63;1950212;91;33747;-73
2021/07/31 14:02:43;;;;;;;11.10;5.55;;;;;;;29.99;35.90;99343.29;1964830;90;30636;-72
2021/07/31 14:05:44;;;;;;;10.88;4.72;;;;;;;30.10;34.41;99331.51;1978948;88;27822;-73
2021/07/31 14:08:49;;;;;;;5.33;3.27;;;;;;;30.23;33.70;99328.29;1958984;90;28737;-73
2021/07/31 14:11:51;;;;;;;4.17;3.08;;;;;;;30.34;33.33;99329.45;1919617;92;31108;-73
2021/07/31 14:14:52;;;;;;;3.33;2.33;;;;;;;30.47;32.42;99327.34;1919574;92;33780;-73
2021/07/31 14:17:54;;;;;;;4.08;3.02;;;;;;;30.52;31.91;99325.30;1920099;92;30507;-72
2021/07/31 14:20:56;;;;;;;3.62;2.17;;;;;;;30.49;31.66;99328.52;1933023;91;27848;-73
2021/07/31 14:23:57;;;;;;;3.37;2.40;;;;;;;30.41;31.30;99328.29;1934703;91;28650;-75
2021/07/31 14:26:59;;;;;;;6.70;3.15;;;;;;;30.33;31.47;99325.82;1955185;90;31030;-74
2021/07/31 14:30:02;;;;;;;5.45;3.12;;;;;;;30.25;31.09;99331.12;1922428;92;32982;-74